Flight Track Log - Related Links

Times and Time Zones

All times are in EDT time to prevent confusion due to time zone crossing. See the N7304T flight status page for this flight to view local times or setup timezone preferences in your user account.

Time Position Orientation Groundspeed Altitude Reporting Facility
EDT Latitude Longitude Course Direction KTS MPH feet Rate Location/Type
Fri 01:53:05 PM 41.3331 -72.2244 258° West 139 160 4,700  Level Boston Center
Fri 01:54:06 PM 41.3269 -72.2742 261° West 134 154 4,700 -31 Level Boston Center
Fri 01:56:19 PM 41.3167 -72.3833 263° West 137 158 4,600 -62 Descending New York TRACON
Fri 01:57:19 PM 41.3167 -72.4333 270° West 145 167 4,500 -100 Descending New York TRACON
Fri 01:58:00 PM 41.2094 -72.2843 258° West  Level FlightAware Approximate
Fri 01:58:19 PM 41.3167 -72.4833 270° West 142 163 4,400  Level New York TRACON
Fri 01:59:19 PM 41.3167 -72.5333 270° West 135 155 4,400 48 Level New York TRACON
Fri 02:00:25 PM 41.3167 -72.5833 270° West 134 154 4,500 48 Climbing New York TRACON
Fri 02:01:25 PM 41.3000 -72.6333 246° West 139 160 4,500  Level New York TRACON
Fri 02:02:25 PM 41.3000 -72.6833 270° West 137 158 4,500 50 Level New York TRACON
Fri 02:03:25 PM 41.3000 -72.7500 270° West 144 166 4,600 50 Climbing New York TRACON
Fri 02:04:25 PM 41.2833 -72.8000 246° West 140 161 4,600  Level New York TRACON
Fri 02:05:25 PM 41.2833 -72.8500 270° West 142 163 4,600  Level New York TRACON
Fri 02:06:25 PM 41.2833 -72.9000 270° West 139 160 4,600 -100 Level New York TRACON
Fri 02:07:25 PM 41.2667 -72.9500 246° West 142 163 4,400 -150 Descending New York TRACON
Fri 02:08:25 PM 41.2500 -72.9833 236° Southwest 142 163 4,300  Descending New York TRACON
Fri 02:09:25 PM 41.2333 -73.0333 246° West 131 151 4,400 100 Climbing New York TRACON
Fri 02:10:25 PM 41.2167 -73.0667 236° Southwest 135 155 4,500 100 Climbing New York TRACON
Fri 02:11:25 PM 41.2000 -73.1167 246° West 133 153 4,600  Climbing New York TRACON
Fri 02:12:25 PM 41.1833 -73.1667 246° West 140 161 4,500  Descending New York TRACON
Fri 02:13:25 PM 41.1667 -73.2167 246° West 137 158 4,600 100 Climbing New York TRACON
Fri 02:14:25 PM 41.1500 -73.2500 236° Southwest 132 152 4,700  Climbing New York TRACON
Fri 02:15:19 PM 41.1333 -73.3000 246° West 141 162 4,600 -105 Descending New York TRACON
Fri 02:16:19 PM 41.1167 -73.3500 246° West 143 165 4,500 -250 Descending New York TRACON
Fri 02:17:19 PM 41.1167 -73.4000 270° West 138 159 4,100 -476 Descending New York TRACON
Fri 02:18:25 PM 41.1333 -73.4500 294° West 141 162 3,500 -429 Descending New York TRACON
Fri 02:19:25 PM 41.1500 -73.5000 294° West 141 162 3,200 -316 Descending New York TRACON
Fri 02:20:19 PM 41.1500 -73.5500 270° West 138 159 2,900 -50 Descending New York TRACON
Fri 02:21:25 PM 41.1500 -73.6000 270° West 133 153 3,100 100 Climbing New York TRACON
Fri 02:22:19 PM 41.1667 -73.6333 304° West 138 159 3,100 -211 Level New York TRACON
Fri 02:23:19 PM 41.1667 -73.6833 270° West 144 166 2,700 -250 Descending New York TRACON
Fri 02:24:19 PM 41.1667 -73.7333 270° West 133 153 2,600 50 Descending New York TRACON
Fri 02:25:19 PM 41.1500 -73.7833 246° West 135 155 2,800 50 Climbing New York TRACON
Fri 02:26:19 PM 41.1333 -73.8333 246° West 133 153 2,700 -100 Descending New York TRACON
Fri 02:27:19 PM 41.1000 -73.8500 201° Southwest 128 147 2,600 -100 Descending New York TRACON
Fri 02:28:19 PM 41.0667 -73.8833 217° Southwest 135 155 2,500 -50 Descending New York TRACON
Fri 02:29:19 PM 41.0500 -73.9167 236° Southwest 147 169 2,500 -50 Level New York TRACON
Fri 02:30:19 PM 41.0333 -73.9667 246° West 138 159 2,400 50 Descending New York TRACON
Fri 02:31:19 PM 41.0167 -74.0167 246° West 132 152 2,600 200 Climbing New York TRACON
Fri 02:32:19 PM 41.0167 -74.0500 270° West 134 154 2,800 50 Climbing New York TRACON
Fri 02:33:19 PM 41.0000 -74.1000 246° West 144 166 2,700 -100 Descending New York TRACON
Fri 02:34:19 PM 40.9833 -74.1500 246° West 137 158 2,600 -300 Descending New York TRACON
Fri 02:35:19 PM 40.9667 -74.2000 246° West 135 155 2,100 -400 Descending New York TRACON
Fri 02:36:19 PM 40.9500 -74.2333 237° Southwest 134 154 1,800 -200 Descending New York TRACON
Fri 02:37:19 PM 40.9167 -74.2500 201° Southwest 111 128 1,700 -300 Descending New York TRACON
Fri 02:38:19 PM 40.8833 -74.2667 201° Southwest 104 120 1,200 -500 Descending New York TRACON

Login

Don't have an account? Register now (free) for customized features, flight alerts, and more!